createdAt,value
2023-02-12T00:00:41.995Z,6.80
2023-02-12T00:04:44.119Z,6.70
2023-02-12T00:08:48.712Z,6.70
2023-02-12T00:12:50.912Z,6.80
2023-02-12T00:16:52.538Z,6.70
2023-02-12T00:20:56.767Z,6.80
2023-02-12T00:24:58.331Z,6.80
2023-02-12T00:28:59.872Z,6.80
2023-02-12T00:33:03.336Z,6.70
2023-02-12T00:37:04.940Z,6.70
2023-02-12T00:41:06.497Z,6.70
2023-02-12T00:45:08.320Z,6.80
2023-02-12T00:49:09.893Z,6.80
2023-02-12T00:53:11.491Z,6.70
2023-02-12T00:57:13.037Z,6.70
2023-02-12T01:01:14.630Z,6.80
2023-02-12T01:05:16.319Z,6.70
2023-02-12T01:09:17.852Z,6.60
2023-02-12T01:13:19.407Z,6.60
2023-02-12T01:17:21.027Z,6.60
2023-02-12T01:21:30.492Z,6.60
2023-02-12T01:25:32.026Z,6.60
2023-02-12T01:29:33.667Z,6.50
2023-02-12T01:33:35.219Z,6.50
2023-02-12T01:37:37.390Z,6.50
2023-02-12T01:41:42.680Z,6.50
2023-02-12T01:45:45.973Z,6.50
2023-02-12T01:49:48.096Z,6.50
2023-02-12T01:53:55.153Z,6.50
2023-02-12T01:57:56.885Z,6.50
2023-02-12T02:01:58.672Z,6.50
2023-02-12T02:06:02.544Z,6.40
2023-02-12T02:10:04.430Z,6.40
2023-02-12T02:14:24.443Z,6.40
2023-02-12T02:18:40.830Z,6.30
2023-02-12T02:22:54.609Z,6.20
2023-02-12T02:27:14.989Z,6.20
2023-02-12T02:31:16.602Z,6.20
2023-02-12T02:35:25.012Z,6.20
2023-02-12T02:39:38.567Z,6.30
2023-02-12T02:43:45.748Z,6.30
2023-02-12T02:47:49.796Z,6.30
2023-02-12T02:51:54.697Z,6.40
2023-02-12T02:55:57.812Z,6.50
2023-02-12T03:00:03.949Z,6.40
2023-02-12T03:04:07.004Z,6.40
2023-02-12T03:08:18.047Z,6.40
2023-02-12T03:12:22.177Z,6.30
2023-02-12T03:16:27.489Z,6.30
2023-02-12T03:20:31.340Z,6.40
2023-02-12T03:24:38.920Z,6.40
2023-02-12T03:28:40.959Z,6.30
2023-02-12T03:32:47.519Z,6.30
2023-02-12T03:36:55.397Z,6.30
2023-02-12T03:41:02.641Z,6.40
2023-02-12T03:45:18.184Z,6.30
2023-02-12T03:49:39.332Z,6.40
2023-02-12T03:53:42.632Z,6.50
2023-02-12T03:57:50.331Z,6.40
2023-02-12T04:01:53.292Z,6.40
2023-02-12T04:05:55.115Z,6.30
2023-02-12T04:09:56.854Z,6.30
2023-02-12T04:14:06.206Z,6.30
2023-02-12T04:18:23.921Z,6.20
2023-02-12T04:22:45.402Z,6.30
2023-02-12T04:26:59.487Z,6.20
2023-02-12T04:31:08.472Z,6.20
2023-02-12T04:35:22.292Z,6.20
2023-02-12T04:39:27.010Z,6.20
2023-02-12T04:43:30.040Z,6.20
2023-02-12T04:47:31.592Z,6.10
2023-02-12T04:51:33.184Z,6.20
2023-02-12T04:55:34.783Z,6.20
2023-02-12T04:59:36.349Z,6.20
2023-02-12T05:03:38.058Z,6.10
2023-02-12T05:07:39.690Z,6.20
2023-02-12T05:11:41.582Z,6.10
2023-02-12T05:15:43.259Z,6.00
2023-02-12T05:19:44.962Z,6.00
2023-02-12T05:23:46.643Z,6.00
2023-02-12T05:27:48.427Z,6.00
2023-02-12T05:31:50.169Z,6.00
2023-02-12T05:35:52.617Z,6.10
2023-02-12T05:39:54.548Z,6.10
2023-02-12T05:43:56.080Z,6.00
2023-02-12T05:47:57.698Z,6.00
2023-02-12T05:51:59.375Z,6.10
2023-02-12T05:56:21.183Z,6.10
2023-02-12T06:00:22.863Z,6.00
2023-02-12T06:04:26.075Z,6.10
2023-02-12T06:08:27.733Z,6.10
2023-02-12T06:12:29.275Z,6.00
2023-02-12T06:16:31.219Z,6.10
2023-02-12T06:20:32.842Z,6.00
2023-02-12T06:24:34.482Z,6.00
2023-02-12T06:28:36.464Z,6.10
2023-02-12T06:32:38.095Z,6.10
2023-02-12T06:36:41.171Z,6.10
2023-02-12T06:40:42.773Z,5.90
2023-02-12T06:44:45.542Z,6.00
2023-02-12T06:48:47.168Z,5.90
2023-02-12T06:52:49.282Z,6.00
2023-02-12T06:56:50.800Z,5.90
2023-02-12T07:00:52.471Z,5.90
2023-02-12T07:04:54.071Z,5.90
2023-02-12T07:08:55.995Z,6.00
2023-02-12T07:12:57.545Z,6.00
2023-02-12T07:16:59.443Z,5.90
2023-02-12T07:21:04.010Z,5.90
2023-02-12T07:25:05.855Z,6.00
2023-02-12T07:29:08.052Z,6.00
2023-02-12T07:33:09.689Z,6.10
2023-02-12T07:37:11.641Z,6.20
2023-02-12T07:41:13.374Z,6.20
2023-02-12T07:45:14.952Z,6.30
2023-02-12T07:49:18.360Z,6.30
2023-02-12T07:53:19.960Z,6.30
2023-02-12T07:57:21.616Z,6.20
2023-02-12T08:01:24.411Z,6.30
2023-02-12T08:05:26.022Z,6.40
2023-02-12T08:09:30.741Z,6.40
2023-02-12T08:13:32.333Z,6.40
2023-02-12T08:17:34.440Z,6.50
2023-02-12T08:21:39.305Z,6.60
2023-02-12T08:25:40.862Z,6.60
2023-02-12T08:29:42.448Z,6.60
2023-02-12T08:33:47.682Z,6.60
2023-02-12T08:37:49.446Z,6.60
2023-02-12T08:41:52.071Z,6.60
2023-02-12T08:45:55.623Z,6.70
2023-02-12T08:49:57.374Z,6.80
2023-02-12T08:54:00.289Z,6.80
2023-02-12T08:58:02.846Z,7.00
2023-02-12T09:02:08.598Z,6.80
2023-02-12T09:06:10.486Z,6.90
2023-02-12T09:10:12.218Z,7.00
2023-02-12T09:14:15.426Z,7.10
2023-02-12T09:18:17.387Z,7.30
2023-02-12T09:22:18.941Z,7.30
2023-02-12T09:26:22.048Z,7.30
2023-02-12T09:30:23.684Z,7.70
2023-02-12T09:34:25.271Z,8.30
2023-02-12T09:38:26.836Z,7.70
2023-02-12T09:42:49.379Z,7.60
2023-02-12T09:46:58.744Z,7.60
2023-02-12T09:51:03.220Z,7.80
2023-02-12T09:55:05.123Z,7.80
2023-02-12T09:59:07.768Z,7.80
2023-02-12T10:03:12.834Z,7.90
2023-02-12T10:07:17.419Z,7.90
2023-02-12T10:11:18.956Z,7.80
2023-02-12T10:15:26.477Z,7.90
2023-02-12T10:19:46.492Z,7.80
2023-02-12T10:23:48.227Z,7.70
2023-02-12T10:27:51.356Z,7.70
2023-02-12T10:32:01.717Z,7.60
2023-02-12T10:36:22.098Z,7.80
2023-02-12T10:40:34.100Z,7.80
2023-02-12T10:44:35.741Z,7.80
2023-02-12T10:48:39.732Z,7.70
2023-02-12T10:52:41.250Z,7.60
2023-02-12T10:56:43.192Z,7.70
2023-02-12T11:00:44.787Z,7.80
2023-02-12T11:04:46.470Z,8.10
2023-02-12T11:08:49.100Z,8.20
2023-02-12T11:12:50.652Z,8.30
2023-02-12T11:16:53.524Z,8.20
2023-02-12T11:20:58.350Z,8.30
2023-02-12T11:25:13.883Z,8.20
2023-02-12T11:29:20.846Z,8.30
2023-02-12T11:33:32.964Z,8.40
2023-02-12T11:37:37.009Z,8.30
2023-02-12T11:41:40.655Z,8.40
2023-02-12T11:45:47.694Z,8.40
2023-02-12T11:49:53.931Z,8.50
2023-02-12T11:53:56.874Z,8.60
2023-02-12T11:58:18.724Z,8.50
2023-02-12T12:02:26.167Z,8.40
2023-02-12T12:06:33.008Z,8.50
2023-02-12T12:10:34.538Z,8.60
2023-02-12T12:15:01.673Z,8.80
2023-02-12T12:19:24.697Z,8.80
2023-02-12T12:23:32.069Z,8.90
2023-02-12T12:27:52.321Z,8.80
2023-02-12T12:31:56.190Z,8.80
2023-02-12T12:36:13.077Z,8.80
2023-02-12T12:40:33.619Z,8.80
2023-02-12T12:44:53.891Z,8.80
2023-02-12T12:49:02.887Z,8.80
2023-02-12T12:53:12.174Z,8.90
2023-02-12T12:57:16.845Z,8.90
2023-02-12T13:01:21.546Z,8.90
2023-02-12T13:05:42.176Z,8.90
2023-02-12T13:09:49.880Z,8.80
2023-02-12T13:13:56.939Z,8.90
2023-02-12T13:17:58.507Z,8.80
2023-02-12T13:22:09.099Z,8.90
2023-02-12T13:26:30.632Z,8.70
2023-02-12T13:30:32.361Z,8.80
2023-02-12T13:34:35.547Z,8.80
2023-02-12T13:38:39.326Z,8.90
2023-02-12T13:42:50.166Z,8.90
2023-02-12T13:46:57.098Z,8.90
2023-02-12T13:51:07.429Z,9.00
2023-02-12T13:55:19.797Z,9.00
2023-02-12T13:59:31.764Z,9.00
2023-02-12T14:03:33.534Z,9.10
2023-02-12T14:07:46.585Z,9.10
2023-02-12T14:11:50.068Z,9.20
2023-02-12T14:15:52.562Z,9.10
2023-02-12T14:19:54.157Z,9.10
2023-02-12T14:24:15.633Z,9.20
2023-02-12T14:28:26.930Z,9.10
2023-02-12T14:32:49.236Z,9.00
2023-02-12T14:37:09.585Z,9.00
2023-02-12T14:41:34.074Z,9.10
2023-02-12T14:45:36.452Z,9.00
2023-02-12T14:49:39.618Z,9.10
2023-02-12T14:53:41.919Z,9.10
2023-02-12T14:57:46.610Z,9.20
2023-02-12T15:01:51.559Z,9.10
2023-02-12T15:06:08.827Z,9.10
2023-02-12T15:10:16.275Z,9.10
2023-02-12T15:14:24.099Z,9.00
2023-02-12T15:18:33.696Z,9.00
2023-02-12T15:22:42.130Z,9.00
2023-02-12T15:27:10.108Z,9.00
2023-02-12T15:31:15.649Z,9.00
2023-02-12T15:35:26.697Z,9.10
2023-02-12T15:39:39.663Z,9.10
2023-02-12T15:43:42.046Z,9.00
2023-02-12T15:47:44.695Z,9.00
2023-02-12T15:51:53.972Z,9.00
2023-02-12T15:55:56.470Z,9.00
2023-02-12T16:00:02.877Z,9.00
2023-02-12T16:04:08.898Z,9.00
2023-02-12T16:08:21.112Z,8.90
2023-02-12T16:12:25.483Z,8.90
2023-02-12T16:16:29.202Z,8.90
2023-02-12T16:20:31.440Z,8.90
2023-02-12T16:24:34.637Z,8.80
2023-02-12T16:28:36.757Z,8.70
2023-02-12T16:32:40.271Z,8.70
2023-02-12T16:36:46.311Z,8.70
2023-02-12T16:41:08.070Z,8.70
2023-02-12T16:45:26.569Z,8.60
2023-02-12T16:49:29.744Z,8.60
2023-02-12T16:53:32.394Z,8.60
2023-02-12T16:57:34.268Z,8.60
2023-02-12T17:01:39.640Z,8.60
2023-02-12T17:05:43.708Z,8.50
2023-02-12T17:09:45.619Z,8.50
2023-02-12T17:13:48.639Z,8.40
2023-02-12T17:17:50.283Z,8.40
2023-02-12T17:21:51.945Z,8.30
2023-02-12T17:25:53.613Z,8.30
2023-02-12T17:29:55.328Z,8.20
2023-02-12T17:33:57.070Z,8.30
2023-02-12T17:37:58.721Z,8.20
2023-02-12T17:42:02.080Z,8.20
2023-02-12T17:46:10.254Z,8.10
2023-02-12T17:50:13.074Z,8.00
2023-02-12T17:54:17.510Z,8.00
2023-02-12T17:58:19.207Z,8.00
2023-02-12T18:02:21.058Z,8.00
2023-02-12T18:06:27.668Z,7.80
2023-02-12T18:10:29.678Z,7.80
2023-02-12T18:14:31.580Z,7.70
2023-02-12T18:18:33.833Z,7.80
2023-02-12T18:22:35.540Z,7.80
2023-02-12T18:26:37.289Z,7.90
2023-02-12T18:30:39.200Z,7.70
2023-02-12T18:34:41.940Z,7.70
2023-02-12T18:38:44.606Z,7.80
2023-02-12T18:42:46.255Z,7.70
2023-02-12T18:46:47.832Z,7.60
2023-02-12T18:50:51.776Z,7.70
2023-02-12T18:54:53.649Z,7.60
2023-02-12T18:58:56.787Z,7.60
2023-02-12T19:02:58.390Z,7.60
2023-02-12T19:07:00.347Z,7.70
2023-02-12T19:11:02.649Z,7.70
2023-02-12T19:15:04.571Z,7.70
2023-02-12T19:19:09.698Z,7.70
2023-02-12T19:23:16.030Z,7.70
2023-02-12T19:27:23.374Z,7.60
2023-02-12T19:31:29.924Z,7.60
2023-02-12T19:35:48.615Z,7.60
2023-02-12T19:44:12.012Z,7.60
2023-02-12T19:48:21.329Z,7.60
2023-02-12T19:52:31.999Z,7.60
2023-02-12T19:56:39.344Z,7.60
2023-02-12T20:00:41.470Z,7.60
2023-02-12T20:05:29.257Z,7.60
2023-02-12T20:09:51.663Z,7.50
2023-02-12T20:14:12.867Z,7.50
2023-02-12T20:18:36.587Z,7.60
2023-02-12T20:27:13.976Z,7.50
2023-02-12T20:31:42.934Z,7.40
2023-02-12T20:36:09.618Z,7.40
2023-02-12T20:40:13.286Z,7.40
2023-02-12T20:44:29.759Z,7.40
2023-02-12T20:48:42.048Z,7.40
2023-02-12T20:52:53.289Z,7.50
2023-02-12T20:57:05.063Z,7.50
2023-02-12T21:01:17.531Z,7.40
2023-02-12T21:05:27.458Z,7.40
2023-02-12T21:09:31.121Z,7.50
2023-02-12T21:13:38.825Z,7.40
2023-02-12T21:17:50.845Z,7.40
2023-02-12T21:21:56.875Z,7.40
2023-02-12T21:26:05.482Z,7.30
2023-02-12T21:30:09.389Z,7.40
2023-02-12T21:34:18.310Z,7.20
2023-02-12T21:38:26.712Z,7.20
2023-02-12T21:42:36.442Z,7.10
2023-02-12T21:46:47.793Z,7.00
2023-02-12T21:50:49.786Z,7.00
2023-02-12T21:54:53.434Z,6.90
2023-02-12T21:58:57.283Z,6.90
2023-02-12T22:03:02.104Z,6.80
2023-02-12T22:07:03.875Z,6.70
2023-02-12T22:11:06.957Z,6.60
2023-02-12T22:15:08.942Z,6.60
2023-02-12T22:19:13.228Z,6.50
2023-02-12T22:23:21.120Z,6.60
2023-02-12T22:27:22.779Z,6.50
2023-02-12T22:31:32.467Z,6.30
2023-02-12T22:35:40.558Z,6.30
2023-02-12T22:39:42.405Z,6.30
2023-02-12T22:43:50.241Z,6.20
2023-02-12T22:47:51.944Z,6.10
2023-02-12T22:51:53.713Z,6.10
2023-02-12T22:55:55.580Z,6.00
2023-02-12T22:59:57.352Z,5.90
2023-02-12T23:04:02.169Z,6.00
2023-02-12T23:08:04.605Z,5.90
2023-02-12T23:12:11.086Z,5.90
2023-02-12T23:16:13.094Z,5.90
2023-02-12T23:20:17.566Z,5.80
2023-02-12T23:24:20.866Z,5.70
2023-02-12T23:28:23.298Z,5.60
2023-02-12T23:32:25.157Z,5.60
2023-02-12T23:36:29.336Z,5.50
2023-02-12T23:40:31.655Z,5.40
2023-02-12T23:44:35.880Z,5.30
2023-02-12T23:48:39.895Z,5.30
2023-02-12T23:52:41.549Z,5.10
2023-02-12T23:56:43.306Z,5.10
